createdAt,value
2017-11-06T00:02:27.448Z,93820.00
2017-11-06T00:04:55.146Z,93816.62
2017-11-06T00:07:22.820Z,93811.77
2017-11-06T00:09:50.567Z,93813.34
2017-11-06T00:12:18.237Z,93813.63
2017-11-06T00:14:45.998Z,93815.22
2017-11-06T00:17:13.684Z,93823.25
2017-11-06T00:19:41.387Z,93825.62
2017-11-06T00:22:09.191Z,93832.84
2017-11-06T00:24:36.871Z,93833.34
2017-11-06T00:27:04.600Z,93837.88
2017-11-06T00:29:32.268Z,93845.59
2017-11-06T00:32:01.263Z,93851.47
2017-11-06T00:34:28.957Z,93860.77
2017-11-06T00:36:56.734Z,93871.46
2017-11-06T00:39:24.533Z,93872.45
2017-11-06T00:41:52.218Z,93876.41
2017-11-06T00:44:19.891Z,93879.16
2017-11-06T00:46:47.596Z,93879.19
2017-11-06T00:49:15.339Z,93874.48
2017-11-06T00:51:45.687Z,93870.41
2017-11-06T00:54:17.515Z,93871.49
2017-11-06T00:56:45.271Z,93869.01
2017-11-06T00:59:12.950Z,93864.42
2017-11-06T01:01:40.666Z,93863.42
2017-11-06T01:04:08.357Z,93869.94
2017-11-06T01:06:36.083Z,93881.56
2017-11-06T01:09:03.864Z,93880.67
2017-11-06T01:11:31.588Z,93884.91
2017-11-06T01:13:59.263Z,93886.08
2017-11-06T01:16:26.981Z,93884.70
2017-11-06T01:18:54.665Z,93881.37
2017-11-06T01:21:22.327Z,93875.63
2017-11-06T01:23:50.021Z,93868.94
2017-11-06T01:26:17.784Z,93861.84
2017-11-06T01:28:45.584Z,93855.33
2017-11-06T01:31:13.287Z,93843.83
2017-11-06T01:33:41.010Z,93833.47
2017-11-06T01:36:08.798Z,93829.20
2017-11-06T01:38:36.471Z,93833.84
2017-11-06T01:41:04.150Z,93837.08
2017-11-06T01:43:32.122Z,93840.05
2017-11-06T01:45:59.811Z,93849.95
2017-11-06T01:48:27.541Z,93855.05
2017-11-06T01:50:55.280Z,93860.28
2017-11-06T01:53:22.980Z,93860.47
2017-11-06T01:55:50.741Z,93859.77
2017-11-06T01:58:18.485Z,93861.97
2017-11-06T02:00:46.304Z,93855.42
2017-11-06T02:03:14.014Z,93854.53
2017-11-06T02:05:41.795Z,93844.77
2017-11-06T02:08:09.464Z,93850.73
2017-11-06T02:10:37.218Z,93862.19
2017-11-06T02:13:05.000Z,93860.28
2017-11-06T02:15:32.705Z,93854.08
2017-11-06T02:18:00.471Z,93865.42
2017-11-06T02:20:28.306Z,93869.09
2017-11-06T02:22:56.114Z,93870.13
2017-11-06T02:25:23.873Z,93866.06
2017-11-06T02:27:51.611Z,93876.43
2017-11-06T02:30:19.452Z,93875.09
2017-11-06T02:32:47.273Z,93867.29
2017-11-06T02:35:15.037Z,93863.25
2017-11-06T02:37:42.769Z,93873.63
2017-11-06T02:40:10.527Z,93882.52
2017-11-06T02:42:38.256Z,93875.63
2017-11-06T02:45:05.962Z,93879.25
2017-11-06T02:47:33.725Z,93867.16
2017-11-06T02:50:01.409Z,93884.92
2017-11-06T02:52:29.196Z,93886.39
2017-11-06T02:54:56.992Z,93889.27
2017-11-06T02:57:24.703Z,93880.06
2017-11-06T02:59:52.449Z,93881.25
2017-11-06T03:02:20.144Z,93879.14
2017-11-06T03:04:47.872Z,93883.06
2017-11-06T03:07:15.619Z,93891.20
2017-11-06T03:09:43.451Z,93890.97
2017-11-06T03:12:11.149Z,93899.30
2017-11-06T03:14:39.515Z,93913.41
2017-11-06T03:17:07.246Z,93914.83
2017-11-06T03:19:34.929Z,93916.51
2017-11-06T03:22:02.682Z,93909.67
2017-11-06T03:24:30.429Z,93914.31
2017-11-06T03:26:58.219Z,93918.28
2017-11-06T03:29:25.978Z,93918.80
2017-11-06T03:31:53.648Z,93916.91
2017-11-06T03:34:21.307Z,93921.91
2017-11-06T03:36:49.017Z,93928.05
2017-11-06T03:39:16.704Z,93939.27
2017-11-06T03:41:44.465Z,93942.91
2017-11-06T03:44:12.194Z,93939.33
2017-11-06T03:46:39.870Z,93940.34
2017-11-06T03:49:07.533Z,93947.35
2017-11-06T03:51:35.279Z,93947.05
2017-11-06T03:54:03.008Z,93942.46
2017-11-06T03:56:30.695Z,93934.42
2017-11-06T03:58:58.434Z,93934.06
2017-11-06T04:01:26.317Z,93938.02
2017-11-06T04:03:54.143Z,93940.21
2017-11-06T04:06:21.879Z,93936.32
2017-11-06T04:08:49.569Z,93936.08
2017-11-06T04:11:18.850Z,93939.61
2017-11-06T04:13:46.549Z,93944.85
2017-11-06T04:16:14.227Z,93944.48
2017-11-06T04:18:42.007Z,93943.36
2017-11-06T04:21:09.785Z,93946.33
2017-11-06T04:23:37.614Z,93953.12
2017-11-06T04:26:05.344Z,93942.40
2017-11-06T04:28:33.028Z,93947.55
2017-11-06T04:31:00.795Z,93948.84
2017-11-06T04:33:38.080Z,93953.97
2017-11-06T04:36:05.903Z,93957.03
2017-11-06T04:38:33.634Z,93962.78
2017-11-06T04:41:01.390Z,93966.50
2017-11-06T04:43:29.106Z,93965.44
2017-11-06T04:45:56.863Z,93971.19
2017-11-06T04:48:24.660Z,93969.03
2017-11-06T04:50:52.345Z,93973.41
2017-11-06T04:53:20.079Z,93977.17
2017-11-06T04:55:47.773Z,93979.12
2017-11-06T04:58:15.508Z,93974.90
2017-11-06T05:00:43.225Z,93974.72
2017-11-06T05:03:10.908Z,93975.88
2017-11-06T05:05:38.648Z,93985.87
2017-11-06T05:08:06.324Z,93984.45
2017-11-06T05:10:34.184Z,93995.10
2017-11-06T05:13:01.873Z,93991.28
2017-11-06T05:15:29.610Z,93998.83
2017-11-06T05:17:57.286Z,93988.12
2017-11-06T05:20:25.025Z,93993.36
2017-11-06T05:22:52.698Z,93999.83
2017-11-06T05:25:20.524Z,93987.43
2017-11-06T05:27:48.884Z,93999.73
2017-11-06T05:30:16.724Z,93998.16
2017-11-06T05:32:44.603Z,94005.67
2017-11-06T05:35:13.299Z,94008.98
2017-11-06T05:37:41.082Z,94007.44
2017-11-06T05:40:08.756Z,94009.45
2017-11-06T05:42:36.444Z,94016.47
2017-11-06T05:45:04.208Z,94029.09
2017-11-06T05:47:32.018Z,94031.08
2017-11-06T05:49:59.788Z,94026.38
2017-11-06T05:52:27.508Z,94019.55
2017-11-06T05:54:55.238Z,94023.91
2017-11-06T05:57:22.962Z,94029.62
2017-11-06T05:59:51.597Z,94026.94
2017-11-06T06:02:19.358Z,94031.00
2017-11-06T06:04:47.016Z,94032.33
2017-11-06T06:07:21.503Z,94039.91
2017-11-06T06:09:49.179Z,94045.11
2017-11-06T06:12:16.981Z,94045.72
2017-11-06T06:14:46.772Z,94048.13
2017-11-06T06:17:14.534Z,94060.99
2017-11-06T06:19:42.232Z,94063.33
2017-11-06T06:22:09.990Z,94068.18
2017-11-06T06:24:37.689Z,94060.95
2017-11-06T06:27:05.448Z,94056.41
2017-11-06T06:29:33.128Z,94060.61
2017-11-06T06:32:00.811Z,94061.91
2017-11-06T06:34:28.585Z,94065.70
2017-11-06T06:36:57.304Z,94078.58
2017-11-06T06:39:24.988Z,94083.23
2017-11-06T06:41:52.809Z,94084.03
2017-11-06T06:44:20.526Z,94089.64
2017-11-06T06:46:48.328Z,94083.86
2017-11-06T06:49:16.027Z,94091.25
2017-11-06T06:51:43.781Z,94096.39
2017-11-06T06:54:11.452Z,94097.41
2017-11-06T06:56:39.149Z,94109.50
2017-11-06T06:59:06.951Z,94112.84
2017-11-06T07:01:34.741Z,94111.77
2017-11-06T07:04:02.490Z,94122.43
2017-11-06T07:06:30.316Z,94131.67
2017-11-06T07:08:58.063Z,94130.95
2017-11-06T07:11:25.861Z,94125.45
2017-11-06T07:13:53.653Z,94127.47
2017-11-06T07:16:21.479Z,94133.31
2017-11-06T07:18:49.275Z,94129.72
2017-11-06T07:21:17.098Z,94133.89
2017-11-06T07:23:44.844Z,94133.06
2017-11-06T07:26:12.597Z,94142.70
2017-11-06T07:28:40.393Z,94143.91
2017-11-06T07:31:08.130Z,94137.91
2017-11-06T07:33:35.998Z,94139.20
2017-11-06T07:36:03.826Z,94144.98
2017-11-06T07:38:31.539Z,94145.36
2017-11-06T07:40:59.311Z,94145.64
2017-11-06T07:43:27.068Z,94145.18
2017-11-06T07:45:55.293Z,94145.13
2017-11-06T07:48:23.049Z,94149.09
2017-11-06T07:50:50.806Z,94146.18
2017-11-06T07:53:19.690Z,94151.36
2017-11-06T07:55:47.379Z,94150.26
2017-11-06T07:58:15.163Z,94145.23
2017-11-06T08:00:43.256Z,94143.19
2017-11-06T08:03:11.025Z,94151.19
2017-11-06T08:05:38.719Z,94152.07
2017-11-06T08:08:06.582Z,94154.58
2017-11-06T08:10:34.702Z,94165.89
2017-11-06T08:13:02.435Z,94168.90
2017-11-06T08:15:30.930Z,94179.67
2017-11-06T08:17:59.004Z,94186.89
2017-11-06T08:20:26.756Z,94188.50
2017-11-06T08:22:54.552Z,94194.16
2017-11-06T08:25:22.330Z,94195.27
2017-11-06T08:27:50.064Z,94194.38
2017-11-06T08:30:17.763Z,94202.09
2017-11-06T08:32:45.489Z,94194.59
2017-11-06T08:35:13.389Z,94191.55
2017-11-06T08:37:41.117Z,94198.03
2017-11-06T08:40:08.990Z,94214.05
2017-11-06T08:42:36.761Z,94217.78
2017-11-06T08:45:04.519Z,94218.10
2017-11-06T08:47:32.279Z,94213.61
2017-11-06T08:49:59.961Z,94211.97
2017-11-06T08:52:27.639Z,94211.66
2017-11-06T08:54:55.434Z,94212.17
2017-11-06T08:57:23.184Z,94212.19
2017-11-06T08:59:50.955Z,94217.84
2017-11-06T09:02:18.766Z,94231.97
2017-11-06T09:04:46.485Z,94238.73
2017-11-06T09:07:14.237Z,94251.33
2017-11-06T09:09:42.006Z,94255.30
2017-11-06T09:12:09.690Z,94260.16
2017-11-06T09:14:37.537Z,94261.30
2017-11-06T09:17:05.253Z,94255.17
2017-11-06T09:19:33.016Z,94260.36
2017-11-06T09:22:00.764Z,94258.80
2017-11-06T09:24:28.524Z,94256.72
2017-11-06T09:26:56.274Z,94263.09
2017-11-06T09:29:24.013Z,94270.05
2017-11-06T09:31:51.748Z,94272.86
2017-11-06T09:34:19.500Z,94279.12
2017-11-06T09:36:47.247Z,94277.95
2017-11-06T09:39:14.930Z,94282.09
2017-11-06T09:41:42.636Z,94286.93
2017-11-06T09:44:10.397Z,94284.40
2017-11-06T09:46:38.173Z,94278.91
2017-11-06T09:49:05.856Z,94271.36
2017-11-06T09:51:33.524Z,94271.48
2017-11-06T09:54:01.320Z,94283.90
2017-11-06T09:56:29.060Z,94277.39
2017-11-06T09:58:56.782Z,94276.86
2017-11-06T10:01:24.532Z,94280.47
2017-11-06T10:03:52.229Z,94276.62
2017-11-06T10:06:19.981Z,94272.52
2017-11-06T10:08:47.665Z,94265.61
2017-11-06T10:11:15.395Z,94262.18
2017-11-06T10:13:43.092Z,94264.88
2017-11-06T10:16:10.889Z,94261.87
2017-11-06T10:18:38.660Z,94271.16
2017-11-06T10:21:06.433Z,94277.20
2017-11-06T10:23:34.288Z,94270.59
2017-11-06T10:26:02.068Z,94265.75
2017-11-06T10:28:29.838Z,94264.92
2017-11-06T10:30:57.580Z,94271.20
2017-11-06T10:33:25.333Z,94267.15
2017-11-06T10:35:53.079Z,94270.60
2017-11-06T10:38:20.840Z,94271.41
2017-11-06T10:40:48.630Z,94277.02
2017-11-06T10:43:16.336Z,94279.28
2017-11-06T10:45:44.054Z,94274.60
2017-11-06T10:48:11.864Z,94272.28
2017-11-06T10:50:39.625Z,94274.77
2017-11-06T10:53:07.385Z,94275.11
2017-11-06T10:55:35.146Z,94274.80
2017-11-06T10:58:02.811Z,94275.66
2017-11-06T11:00:30.660Z,94280.52
2017-11-06T11:02:58.543Z,94283.27
2017-11-06T11:05:26.277Z,94283.06
2017-11-06T11:07:54.113Z,94278.45
2017-11-06T11:10:21.838Z,94287.01
2017-11-06T11:12:49.615Z,94284.78
2017-11-06T11:15:17.373Z,94293.69
2017-11-06T11:17:45.139Z,94297.63
2017-11-06T11:20:13.846Z,94294.79
2017-11-06T11:22:41.545Z,94291.44
2017-11-06T11:25:09.382Z,94291.27
2017-11-06T11:27:37.288Z,94285.13
2017-11-06T11:30:05.023Z,94300.86
2017-11-06T11:32:32.777Z,94292.50
2017-11-06T11:35:00.618Z,94285.52
2017-11-06T11:37:28.369Z,94297.52
2017-11-06T11:39:56.113Z,94298.63
2017-11-06T11:42:23.934Z,94289.30
2017-11-06T11:44:51.679Z,94290.66
2017-11-06T11:47:19.378Z,94284.03
2017-11-06T11:49:47.167Z,94281.23
2017-11-06T11:52:14.928Z,94286.64
2017-11-06T11:54:42.620Z,94294.54
2017-11-06T11:57:10.406Z,94302.63
2017-11-06T11:59:38.368Z,94301.29
2017-11-06T12:02:06.142Z,94299.75
2017-11-06T12:04:33.842Z,94299.48
2017-11-06T12:07:01.648Z,94297.34
2017-11-06T12:09:30.107Z,94300.31
2017-11-06T12:11:57.853Z,94303.05
2017-11-06T12:14:25.723Z,94309.85
2017-11-06T12:16:53.453Z,94310.84
2017-11-06T12:19:21.165Z,94305.45
2017-11-06T12:21:48.963Z,94310.34
2017-11-06T12:24:16.936Z,94309.71
2017-11-06T12:26:44.638Z,94311.62
2017-11-06T12:29:12.606Z,94312.42
2017-11-06T12:31:40.394Z,94298.24
2017-11-06T12:34:08.167Z,94297.72
2017-11-06T12:36:35.890Z,94290.28
2017-11-06T12:39:03.745Z,94290.64
2017-11-06T12:41:31.471Z,94294.23
2017-11-06T12:43:59.157Z,94281.72
2017-11-06T12:46:26.935Z,94270.05
2017-11-06T12:48:54.802Z,94275.78
2017-11-06T12:51:22.550Z,94279.31
2017-11-06T12:53:50.424Z,94271.02
2017-11-06T12:56:18.230Z,94273.11
2017-11-06T12:58:46.844Z,94287.13
2017-11-06T13:01:14.607Z,94292.63
2017-11-06T13:03:42.338Z,94298.44
2017-11-06T13:06:10.067Z,94305.56
2017-11-06T13:08:37.802Z,94303.84
2017-11-06T13:11:05.576Z,94312.30
2017-11-06T13:13:33.320Z,94309.65
2017-11-06T13:16:02.075Z,94305.09
2017-11-06T13:18:29.815Z,94302.52
2017-11-06T13:20:57.563Z,94308.55
2017-11-06T13:23:25.276Z,94306.69
2017-11-06T13:25:53.059Z,94308.02
2017-11-06T13:28:20.796Z,94307.92
2017-11-06T13:30:48.706Z,94314.87
2017-11-06T13:33:17.704Z,94319.62
2017-11-06T13:35:45.420Z,94317.14
2017-11-06T13:38:13.225Z,94322.25
2017-11-06T13:40:40.975Z,94323.94
2017-11-06T13:43:09.071Z,94328.33
2017-11-06T13:45:36.812Z,94327.44
2017-11-06T13:48:04.589Z,94334.19
2017-11-06T13:50:32.297Z,94337.19
2017-11-06T13:53:00.064Z,94336.88
2017-11-06T13:55:27.791Z,94350.44
2017-11-06T13:57:55.487Z,94352.16
2017-11-06T14:00:23.610Z,94351.53
2017-11-06T14:02:51.300Z,94358.84
2017-11-06T14:05:19.038Z,94358.50
2017-11-06T14:07:46.816Z,94357.32
2017-11-06T14:10:14.583Z,94363.72
2017-11-06T14:12:42.259Z,94363.00
2017-11-06T14:15:09.957Z,94363.58
2017-11-06T14:17:37.900Z,94368.80
2017-11-06T14:20:05.607Z,94369.95
2017-11-06T14:22:33.366Z,94369.33
2017-11-06T14:25:01.070Z,94367.63
2017-11-06T14:27:28.876Z,94376.02
2017-11-06T14:29:56.605Z,94381.42
2017-11-06T14:32:24.287Z,94376.91
2017-11-06T14:34:52.444Z,94374.77
2017-11-06T14:37:20.650Z,94378.28
2017-11-06T14:39:48.347Z,94373.66
2017-11-06T14:42:16.106Z,94372.14
2017-11-06T14:44:43.861Z,94378.48
2017-11-06T14:47:11.634Z,94380.22
2017-11-06T14:49:39.339Z,94382.63
2017-11-06T14:52:07.103Z,94375.93
2017-11-06T14:54:34.945Z,94383.28
2017-11-06T14:57:03.049Z,94380.92
2017-11-06T14:59:30.784Z,94388.95
2017-11-06T15:01:58.491Z,94388.97
2017-11-06T15:04:26.264Z,94389.86
2017-11-06T15:06:53.952Z,94396.85
2017-11-06T15:09:22.917Z,94391.29
2017-11-06T15:11:50.791Z,94397.05
2017-11-06T15:14:18.552Z,94398.53
2017-11-06T15:16:46.448Z,94401.81
2017-11-06T15:19:14.191Z,94397.73
2017-11-06T15:21:42.068Z,94398.70
2017-11-06T15:24:09.834Z,94405.52
2017-11-06T15:26:37.626Z,94409.20
2017-11-06T15:29:05.368Z,94410.25
2017-11-06T15:31:33.257Z,94407.41
2017-11-06T15:34:01.012Z,94415.40
2017-11-06T15:36:28.744Z,94419.98
2017-11-06T15:38:56.477Z,94423.20
2017-11-06T15:41:24.301Z,94419.94
2017-11-06T15:43:52.135Z,94421.59
2017-11-06T15:46:21.369Z,94422.56
2017-11-06T15:48:50.341Z,94424.52
2017-11-06T15:51:18.086Z,94421.64
2017-11-06T15:53:45.825Z,94428.37
2017-11-06T15:56:13.614Z,94424.54
2017-11-06T15:58:41.305Z,94427.91
2017-11-06T16:01:09.033Z,94431.48
2017-11-06T16:03:36.784Z,94434.56
2017-11-06T16:06:04.532Z,94438.81
2017-11-06T16:08:32.268Z,94438.73
2017-11-06T16:10:59.994Z,94438.09
2017-11-06T16:13:27.772Z,94438.47
2017-11-06T16:15:55.453Z,94441.28
2017-11-06T16:18:23.159Z,94446.34
2017-11-06T16:20:50.949Z,94447.62
2017-11-06T16:23:19.433Z,94449.38
2017-11-06T16:25:47.157Z,94453.50
2017-11-06T16:28:14.913Z,94458.36
2017-11-06T16:30:42.634Z,94458.36
2017-11-06T16:33:10.375Z,94464.45
2017-11-06T16:35:38.185Z,94464.22
2017-11-06T16:40:39.842Z,94467.51
2017-11-06T16:43:07.557Z,94466.95
2017-11-06T16:45:35.305Z,94474.72
2017-11-06T16:48:03.108Z,94466.63
2017-11-06T16:50:30.778Z,94472.67
2017-11-06T16:52:58.510Z,94474.08
2017-11-06T16:55:26.306Z,94474.16
2017-11-06T16:57:54.063Z,94468.70
2017-11-06T17:00:21.774Z,94472.71
2017-11-06T17:02:49.553Z,94483.78
2017-11-06T17:05:17.320Z,94486.19
2017-11-06T17:07:45.050Z,94490.76
2017-11-06T17:10:12.842Z,94491.16
2017-11-06T17:12:41.661Z,94490.60
2017-11-06T17:15:09.435Z,94489.33
2017-11-06T17:17:37.220Z,94489.16
2017-11-06T17:20:05.084Z,94495.73
2017-11-06T17:22:32.840Z,94501.34
2017-11-06T17:25:00.664Z,94507.56
2017-11-06T17:27:28.468Z,94503.36
2017-11-06T17:29:56.202Z,94514.91
2017-11-06T17:32:23.943Z,94514.74
2017-11-06T17:34:51.688Z,94524.92
2017-11-06T17:37:19.819Z,94518.67
2017-11-06T17:39:47.553Z,94524.84
2017-11-06T17:42:15.304Z,94527.13
2017-11-06T17:44:43.146Z,94530.78
2017-11-06T17:47:11.038Z,94539.28
2017-11-06T17:49:38.847Z,94537.20
2017-11-06T17:52:06.562Z,94535.43
2017-11-06T17:54:34.367Z,94538.72
2017-11-06T17:57:02.072Z,94541.80
2017-11-06T17:59:29.888Z,94545.00
2017-11-06T18:01:57.603Z,94545.24
2017-11-06T18:04:25.336Z,94551.58
2017-11-06T18:06:53.172Z,94548.12
2017-11-06T18:09:20.895Z,94549.16
2017-11-06T18:11:48.585Z,94552.05
2017-11-06T18:14:17.140Z,94556.22
2017-11-06T18:16:44.969Z,94551.88
2017-11-06T18:19:12.904Z,94545.41
2017-11-06T18:21:40.719Z,94555.09
2017-11-06T18:24:08.507Z,94553.91
2017-11-06T18:26:36.310Z,94553.50
2017-11-06T18:29:04.083Z,94549.56
2017-11-06T18:31:31.983Z,94549.58
2017-11-06T18:33:59.667Z,94553.97
2017-11-06T18:36:27.432Z,94553.49
2017-11-06T18:38:55.211Z,94547.16
2017-11-06T18:41:23.330Z,94545.95
2017-11-06T18:43:52.500Z,94548.38
2017-11-06T18:46:20.525Z,94543.89
2017-11-06T18:48:48.466Z,94544.45
2017-11-06T18:51:16.249Z,94546.13
2017-11-06T18:53:43.991Z,94541.95
2017-11-06T18:56:13.489Z,94546.28
2017-11-06T18:58:42.982Z,94542.36
2017-11-06T19:01:12.263Z,94546.13
2017-11-06T19:03:40.140Z,94541.88
2017-11-06T19:06:07.985Z,94545.95
2017-11-06T19:08:36.134Z,94543.55
2017-11-06T19:11:04.255Z,94545.39
2017-11-06T19:13:31.974Z,94543.89
2017-11-06T19:15:59.862Z,94541.97
2017-11-06T19:18:27.643Z,94540.20
2017-11-06T19:20:55.484Z,94540.77
2017-11-06T19:23:23.275Z,94539.17
2017-11-06T19:25:52.018Z,94539.08
2017-11-06T19:28:20.101Z,94540.59
2017-11-06T19:30:49.391Z,94546.91
2017-11-06T19:33:17.202Z,94543.88
2017-11-06T19:35:44.946Z,94550.22
2017-11-06T19:38:12.686Z,94545.33
2017-11-06T19:40:40.493Z,94541.56
2017-11-06T19:43:08.242Z,94537.55
2017-11-06T19:45:36.211Z,94546.76
2017-11-06T19:48:04.769Z,94544.11
2017-11-06T19:50:32.721Z,94552.86
2017-11-06T19:53:00.485Z,94557.58
2017-11-06T19:55:28.312Z,94559.42
2017-11-06T19:57:56.776Z,94561.11
2017-11-06T20:00:25.156Z,94564.95
2017-11-06T20:02:52.964Z,94565.56
2017-11-06T20:05:21.602Z,94566.86
2017-11-06T20:07:50.169Z,94562.80
2017-11-06T20:10:18.136Z,94557.99
2017-11-06T20:12:45.850Z,94558.86
2017-11-06T20:15:14.817Z,94560.79
2017-11-06T20:17:43.695Z,94562.33
2017-11-06T20:20:11.680Z,94558.84
2017-11-06T20:22:39.732Z,94564.12
2017-11-06T20:25:07.521Z,94570.30
2017-11-06T20:27:35.264Z,94568.05
2017-11-06T20:30:02.986Z,94568.94
2017-11-06T20:32:30.789Z,94569.20
2017-11-06T20:34:58.591Z,94565.52
2017-11-06T20:37:26.396Z,94567.52
2017-11-06T20:39:54.122Z,94569.36
2017-11-06T20:42:21.895Z,94575.77
2017-11-06T20:44:49.653Z,94575.07
2017-11-06T20:47:17.458Z,94574.02
2017-11-06T20:49:45.279Z,94569.75
2017-11-06T20:52:13.066Z,94571.22
2017-11-06T20:54:40.784Z,94565.91
2017-11-06T20:57:08.557Z,94562.69
2017-11-06T20:59:36.294Z,94565.26
2017-11-06T21:02:04.072Z,94580.53
2017-11-06T21:04:31.928Z,94574.66
2017-11-06T21:06:59.764Z,94572.21
2017-11-06T21:09:27.482Z,94568.06
2017-11-06T21:11:55.224Z,94565.50
2017-11-06T21:14:22.965Z,94569.75
2017-11-06T21:16:50.732Z,94570.11
2017-11-06T21:19:18.463Z,94579.55
2017-11-06T21:21:46.286Z,94587.19
2017-11-06T21:24:14.045Z,94584.05
2017-11-06T21:26:41.799Z,94576.72
2017-11-06T21:29:09.553Z,94576.39
2017-11-06T21:31:37.365Z,94570.54
2017-11-06T21:34:05.859Z,94574.39
2017-11-06T21:36:33.617Z,94571.52
2017-11-06T21:39:01.436Z,94569.98
2017-11-06T21:41:29.198Z,94568.22
2017-11-06T21:43:57.093Z,94571.99
2017-11-06T21:46:24.870Z,94571.56
2017-11-06T21:48:52.676Z,94569.17
2017-11-06T21:51:20.453Z,94564.34
2017-11-06T21:53:48.203Z,94564.94
2017-11-06T21:56:15.906Z,94562.36
2017-11-06T21:58:43.711Z,94559.92
2017-11-06T22:01:11.434Z,94560.41
2017-11-06T22:03:39.205Z,94571.93
2017-11-06T22:06:07.013Z,94572.97
2017-11-06T22:08:34.793Z,94565.94
2017-11-06T22:11:02.937Z,94564.98
2017-11-06T22:13:30.734Z,94562.12
2017-11-06T22:15:58.448Z,94559.81
2017-11-06T22:18:26.185Z,94563.11
2017-11-06T22:20:54.054Z,94570.56
2017-11-06T22:23:21.918Z,94564.63
2017-11-06T22:25:49.719Z,94569.75
2017-11-06T22:28:18.274Z,94570.70
2017-11-06T22:30:46.194Z,94572.65
2017-11-06T22:33:13.937Z,94576.59
2017-11-06T22:35:41.666Z,94568.08
2017-11-06T22:38:09.360Z,94568.73
2017-11-06T22:40:37.122Z,94559.42
2017-11-06T22:43:04.882Z,94551.56
2017-11-06T22:45:32.674Z,94550.52
2017-11-06T22:48:00.446Z,94547.88
2017-11-06T22:50:28.155Z,94547.88
2017-11-06T22:52:55.974Z,94550.14
2017-11-06T22:55:23.831Z,94540.66
2017-11-06T22:57:51.545Z,94542.13
2017-11-06T23:00:19.411Z,94536.36
2017-11-06T23:02:47.125Z,94524.09
2017-11-06T23:05:14.876Z,94530.18
2017-11-06T23:07:42.643Z,94522.81
2017-11-06T23:10:10.798Z,94521.76
2017-11-06T23:12:38.513Z,94527.53
2017-11-06T23:15:06.289Z,94528.33
2017-11-06T23:17:34.028Z,94530.81
2017-11-06T23:20:01.775Z,94536.89
2017-11-06T23:22:29.448Z,94543.78
2017-11-06T23:24:57.130Z,94536.91
2017-11-06T23:27:24.846Z,94542.84
2017-11-06T23:29:52.535Z,94542.17
2017-11-06T23:32:20.256Z,94543.64
2017-11-06T23:34:47.981Z,94538.04
2017-11-06T23:37:15.772Z,94532.66
2017-11-06T23:39:43.581Z,94530.33
2017-11-06T23:42:11.536Z,94532.59
2017-11-06T23:44:39.292Z,94525.53
2017-11-06T23:47:07.026Z,94527.38
2017-11-06T23:49:34.740Z,94524.42
2017-11-06T23:52:02.504Z,94528.82
2017-11-06T23:54:30.200Z,94527.77
2017-11-06T23:56:57.982Z,94525.12
2017-11-06T23:59:25.748Z,94522.48
